Time;durP1;ratioP1;P1;durP2;ratioP2;P2;SDS_P1;SDS_P2;PMS_P1;PMS_P2;Temp;Humidity;BMP_temperature;BMP_pressure;BME280_temperature;BME280_humidity;BME280_pressure;Samples;Min_cycle;Max_cycle;Signal;HPM_P1;HPM_P2
2023/10/04 00:00:21;;;;;;;5.00;4.60;;;22.60;59.20;;;;;;5035849;28;20440;-67
2023/10/04 00:02:49;;;;;;;5.13;4.73;;;22.60;59.20;;;;;;5017427;28;20657;-68
2023/10/04 00:05:16;;;;;;;5.10;4.70;;;22.60;59.20;;;;;;5035368;28;20188;-67
2023/10/04 00:07:46;;;;;;;5.20;4.80;;;22.60;59.30;;;;;;5017152;28;20411;-66
2023/10/04 00:10:13;;;;;;;5.10;4.70;;;22.60;59.30;;;;;;5035131;28;20402;-67
2023/10/04 00:12:39;;;;;;;5.60;5.20;;;22.60;59.20;;;;;;5035056;28;20538;-68
2023/10/04 00:15:12;;;;;;;4.93;4.63;;;22.60;59.80;;;;;;5035400;28;20442;-67
2023/10/04 00:17:42;;;;;;;4.77;4.40;;;22.60;59.20;;;;;;5034950;28;20449;-67
2023/10/04 00:20:14;;;;;;;5.30;4.90;;;22.60;59.30;;;;;;5034973;28;20974;-67
2023/10/04 00:22:40;;;;;;;5.13;4.83;;;22.60;59.30;;;;;;5034978;28;20429;-67
2023/10/04 00:25:16;;;;;;;5.30;4.90;;;22.60;59.20;;;;;;5034329;28;20442;-67
2023/10/04 00:27:43;;;;;;;5.43;4.93;;;22.60;59.20;;;;;;5035010;28;20398;-67
2023/10/04 00:30:13;;;;;;;5.20;4.80;;;22.60;59.30;;;;;;5035093;28;20407;-67
2023/10/04 00:32:39;;;;;;;4.77;4.40;;;22.60;59.30;;;;;;5034557;28;20895;-67
2023/10/04 00:35:09;;;;;;;5.37;4.97;;;22.60;59.30;;;;;;5034024;28;20552;-66
2023/10/04 00:37:35;;;;;;;4.83;4.53;;;22.60;59.30;;;;;;5034489;28;20427;-66
2023/10/04 00:40:09;;;;;;;5.43;5.03;;;22.60;59.30;;;;;;5017047;28;20427;-67
2023/10/04 00:42:35;;;;;;;4.63;4.33;;;22.60;59.30;;;;;;5017883;28;20474;-67
2023/10/04 00:45:01;;;;;;;4.93;4.53;;;22.60;59.30;;;;;;5034717;28;20883;-67
2023/10/04 00:47:27;;;;;;;4.90;4.50;;;22.60;59.30;;;;;;5017007;28;20179;-67
2023/10/04 00:49:55;;;;;;;4.33;4.03;;;22.60;59.30;;;;;;5034210;28;20411;-67
2023/10/04 00:52:21;;;;;;;4.57;4.23;;;22.60;59.20;;;;;;5034449;28;20414;-67
2023/10/04 00:54:47;;;;;;;4.17;3.87;;;22.60;59.30;;;;;;5034281;28;20469;-66
2023/10/04 00:57:13;;;;;;;5.10;4.70;;;22.60;59.20;;;;;;5033678;28;20175;-64
2023/10/04 00:59:42;;;;;;;5.20;4.80;;;22.60;59.30;;;;;;5033821;28;20542;-66
2023/10/04 01:02:08;;;;;;;5.33;4.93;;;22.60;59.30;;;;;;5033518;28;20512;-66
2023/10/04 01:04:34;;;;;;;5.60;4.83;;;22.60;59.20;;;;;;5033983;28;20442;-66
2023/10/04 01:07:00;;;;;;;4.93;4.53;;;22.60;59.20;;;;;;5033652;28;20418;-66
2023/10/04 01:09:26;;;;;;;4.83;4.43;;;22.60;59.30;;;;;;5033052;28;20307;-67
2023/10/04 01:11:52;;;;;;;5.00;4.60;;;22.60;59.30;;;;;;5033690;28;20170;-67
2023/10/04 01:14:32;;;;;;;4.83;4.53;;;22.60;59.30;;;;;;5033203;28;21093;-67
2023/10/04 01:16:58;;;;;;;4.40;4.00;;;22.60;59.20;;;;;;5034544;28;20242;-66
2023/10/04 01:19:25;;;;;;;4.37;3.97;;;22.60;59.30;;;;;;5033518;28;20453;-67
2023/10/04 01:21:51;;;;;;;4.50;4.20;;;22.60;59.30;;;;;;5033846;28;20680;-67
2023/10/04 01:24:17;;;;;;;4.20;3.90;;;22.60;59.20;;;;;;5033321;28;20434;-67
2023/10/04 01:26:43;;;;;;;4.73;4.33;;;22.60;59.30;;;;;;5032924;28;20626;-67
2023/10/04 01:29:11;;;;;;;5.30;4.90;;;22.60;59.30;;;;;;5032665;28;20423;-66
2023/10/04 01:31:38;;;;;;;5.00;4.60;;;22.60;59.20;;;;;;5032701;28;20482;-67
2023/10/04 01:34:06;;;;;;;4.33;4.03;;;22.60;59.20;;;;;;5032576;28;20842;-66
2023/10/04 01:36:32;;;;;;;4.37;4.07;;;22.60;59.30;;;;;;5033094;28;20426;-67
2023/10/04 01:38:58;;;;;;;4.30;4.00;;;22.60;59.30;;;;;;5018707;28;20962;-65
2023/10/04 01:41:28;;;;;;;4.43;4.13;;;22.60;59.20;;;;;;5035958;28;20418;-67
2023/10/04 01:44:00;;;;;;;5.00;4.60;;;22.60;59.30;;;;;;5036174;28;20441;-67
2023/10/04 01:46:26;;;;;;;4.60;4.20;;;22.60;59.30;;;;;;5035952;28;20433;-66
2023/10/04 01:48:52;;;;;;;4.70;4.40;;;22.60;59.30;;;;;;5036252;28;20429;-65
2023/10/04 01:51:17;;;;;;;4.70;4.40;;;22.60;59.30;;;;;;5036087;28;20421;-67
2023/10/04 01:53:43;;;;;;;4.23;3.87;;;22.60;59.20;;;;;;5035755;28;20230;-67
2023/10/04 01:56:11;;;;;;;4.40;4.10;;;22.50;59.20;;;;;;5035914;28;20176;-66
2023/10/04 01:58:37;;;;;;;3.97;3.67;;;22.60;59.30;;;;;;5036218;28;20172;-66
2023/10/04 02:01:06;;;;;;;4.43;4.13;;;22.60;59.30;;;;;;5035855;28;20826;-66
2023/10/04 02:03:32;;;;;;;4.00;3.70;;;22.60;59.30;;;;;;5035331;28;20222;-67
2023/10/04 02:05:58;;;;;;;4.10;3.80;;;22.60;59.20;;;;;;5035613;28;20414;-66
2023/10/04 02:08:24;;;;;;;4.20;3.90;;;22.60;59.30;;;;;;5035935;28;20601;-67
2023/10/04 02:10:52;;;;;;;4.40;4.10;;;22.60;59.30;;;;;;5035694;28;20183;-66
2023/10/04 02:13:19;;;;;;;3.63;3.37;;;22.60;59.30;;;;;;5035425;28;20489;-67
2023/10/04 02:15:48;;;;;;;3.83;3.53;;;22.60;59.30;;;;;;5035847;28;20414;-66
2023/10/04 02:18:15;;;;;;;3.80;3.50;;;22.60;59.30;;;;;;5035653;28;20422;-67
2023/10/04 02:20:49;;;;;;;3.87;3.67;;;22.60;59.30;;;;;;5035605;28;20565;-67
2023/10/04 02:23:18;;;;;;;3.70;3.50;;;22.60;59.30;;;;;;5035708;28;20438;-67
2023/10/04 02:25:45;;;;;;;4.10;3.80;;;22.60;59.30;;;;;;5036033;28;20938;-67
2023/10/04 02:28:11;;;;;;;4.00;3.70;;;22.50;59.20;;;;;;5035347;28;20418;-67
2023/10/04 02:30:40;;;;;;;4.00;3.70;;;22.60;59.30;;;;;;5035429;28;20446;-66
2023/10/04 02:33:13;;;;;;;3.83;3.53;;;22.60;59.30;;;;;;5012162;28;20561;-66
2023/10/04 02:35:44;;;;;;;3.60;3.30;;;22.60;59.30;;;;;;5015394;28;20437;-67
2023/10/04 02:38:23;;;;;;;4.07;3.77;;;22.60;59.30;;;;;;5015411;28;20407;-67
2023/10/04 02:40:52;;;;;;;4.53;4.13;;;22.60;59.30;;;;;;5015287;28;20403;-67
2023/10/04 02:43:27;;;;;;;3.60;3.30;;;22.60;59.30;;;;;;5015463;28;21039;-67
2023/10/04 02:45:54;;;;;;;4.00;3.70;;;22.60;59.30;;;;;;5015422;28;20395;-66
2023/10/04 02:48:20;;;;;;;3.90;3.60;;;22.60;59.30;;;;;;5014532;28;20885;-67
2023/10/04 02:50:46;;;;;;;4.30;4.00;;;22.50;59.20;;;;;;5015310;28;20423;-66
2023/10/04 02:53:16;;;;;;;3.37;3.17;;;22.50;59.20;;;;;;5015153;28;20470;-66
2023/10/04 02:55:45;;;;;;;4.27;3.87;;;22.50;59.20;;;;;;5015303;28;20931;-67
2023/10/04 02:58:12;;;;;;;3.67;3.37;;;22.50;59.20;;;;;;5015493;28;20486;-66
2023/10/04 03:00:49;;;;;;;3.57;3.37;;;22.50;59.20;;;;;;5015362;28;20522;-67
2023/10/04 03:03:19;;;;;;;3.90;3.60;;;22.50;59.20;;;;;;5015334;28;20524;-66
2023/10/04 03:05:45;;;;;;;3.60;3.40;;;22.50;59.30;;;;;;5015243;28;20423;-66
2023/10/04 03:08:12;;;;;;;3.50;3.30;;;22.50;59.20;;;;;;5015274;28;21011;-67
2023/10/04 03:10:38;;;;;;;4.27;3.97;;;22.50;59.20;;;;;;4997751;28;20423;-68
2023/10/04 03:13:16;;;;;;;3.70;3.40;;;22.50;59.20;;;;;;5015349;28;20463;-66
2023/10/04 03:15:46;;;;;;;3.50;3.20;;;22.50;59.20;;;;;;5015299;28;20399;-67
2023/10/04 03:18:25;;;;;;;3.20;3.00;;;22.50;59.20;;;;;;5015105;28;20469;-66
2023/10/04 03:21:08;;;;;;;3.73;3.43;;;22.50;59.20;;;;;;5015126;28;20399;-67
2023/10/04 03:23:40;;;;;;;3.70;3.40;;;22.50;59.30;;;;;;5015266;28;20542;-67
2023/10/04 03:26:06;;;;;;;3.37;3.17;;;22.50;59.30;;;;;;5014980;28;20408;-66
2023/10/04 03:28:33;;;;;;;3.83;3.53;;;22.50;59.30;;;;;;5014921;28;20498;-67
2023/10/04 03:31:03;;;;;;;3.10;2.90;;;22.50;59.30;;;;;;5015106;28;20421;-67
2023/10/04 03:33:35;;;;;;;3.43;3.23;;;22.50;59.30;;;;;;5015567;28;20475;-67
2023/10/04 03:36:04;;;;;;;3.70;3.50;;;22.50;59.30;;;;;;5015246;28;20431;-67
2023/10/04 03:38:33;;;;;;;3.77;3.50;;;22.50;59.30;;;;;;5014518;28;20975;-67
2023/10/04 03:40:59;;;;;;;3.43;3.23;;;22.50;59.30;;;;;;5015298;28;20415;-67
2023/10/04 03:43:25;;;;;;;3.60;3.40;;;22.50;59.30;;;;;;4996939;28;20442;-67
2023/10/04 03:45:50;;;;;;;3.10;2.90;;;22.50;59.30;;;;;;4997344;28;20415;-67
2023/10/04 03:48:16;;;;;;;3.80;3.50;;;22.50;59.30;;;;;;5015020;28;20669;-68
2023/10/04 03:50:46;;;;;;;3.57;3.27;;;22.50;59.30;;;;;;5014786;28;20172;-67
2023/10/04 03:53:12;;;;;;;3.70;3.40;;;22.50;59.30;;;;;;5014569;28;20572;-67
2023/10/04 03:55:38;;;;;;;3.80;3.50;;;22.50;59.30;;;;;;5015037;28;20414;-67
2023/10/04 03:58:04;;;;;;;3.90;3.60;;;22.50;59.30;;;;;;5014905;28;20412;-67
2023/10/04 04:00:33;;;;;;;3.37;3.17;;;22.50;59.30;;;;;;5014391;28;20641;-67
2023/10/04 04:02:59;;;;;;;3.17;2.97;;;22.50;59.90;;;;;;5014948;28;20955;-66
2023/10/04 04:05:25;;;;;;;3.40;3.20;;;22.50;59.30;;;;;;5014821;28;20421;-67
2023/10/04 04:07:52;;;;;;;3.37;3.07;;;22.50;59.30;;;;;;5014946;28;20176;-67
2023/10/04 04:10:19;;;;;;;3.80;3.40;;;22.50;59.30;;;;;;5015218;28;20176;-67
2023/10/04 04:12:46;;;;;;;3.53;3.23;;;22.50;59.30;;;;;;5014249;28;20799;-67
2023/10/04 04:15:14;;;;;;;2.90;2.70;;;22.50;59.30;;;;;;5014575;28;20435;-67
2023/10/04 04:17:41;;;;;;;3.07;2.87;;;22.50;59.30;;;;;;5014543;28;20458;-66
2023/10/04 04:20:14;;;;;;;4.67;3.27;;;22.50;59.30;;;;;;5014760;28;20484;-67
2023/10/04 04:22:53;;;;;;;3.10;2.90;;;22.50;59.30;;;;;;5015067;28;20404;-67
2023/10/04 04:25:19;;;;;;;4.00;3.60;;;22.50;59.30;;;;;;5014480;28;20403;-67
2023/10/04 04:27:46;;;;;;;3.10;2.90;;;22.50;59.30;;;;;;5014428;28;20418;-67
2023/10/04 04:30:17;;;;;;;3.33;3.13;;;22.50;59.30;;;;;;5014238;28;20478;-67
2023/10/04 04:32:47;;;;;;;3.10;2.90;;;22.50;59.30;;;;;;5014017;28;20412;-67
2023/10/04 04:35:24;;;;;;;3.30;3.00;;;22.50;59.30;;;;;;5014350;28;20396;-67
2023/10/04 04:37:55;;;;;;;3.70;3.40;;;22.50;59.30;;;;;;5014310;28;20400;-67
2023/10/04 04:40:25;;;;;;;3.10;2.90;;;22.50;59.30;;;;;;5014631;28;20453;-65
2023/10/04 04:42:51;;;;;;;3.43;3.13;;;22.50;59.30;;;;;;5015356;28;20538;-66
2023/10/04 04:45:16;;;;;;;3.30;3.10;;;22.50;59.30;;;;;;5013827;28;20901;-66
2023/10/04 04:47:44;;;;;;;3.20;3.00;;;22.50;59.30;;;;;;5013947;28;20593;-66
2023/10/04 04:50:10;;;;;;;3.17;2.97;;;22.50;59.30;;;;;;5014309;28;20177;-67
2023/10/04 04:52:36;;;;;;;2.70;2.50;;;22.50;59.70;;;;;;5013836;28;20408;-66
2023/10/04 04:55:04;;;;;;;3.60;3.30;;;22.50;59.40;;;;;;5014262;28;20857;-67
2023/10/04 04:57:31;;;;;;;3.00;2.80;;;22.50;59.30;;;;;;5013646;28;20200;-66
2023/10/04 04:59:57;;;;;;;2.97;2.67;;;22.50;59.30;;;;;;5014088;28;20403;-66
2023/10/04 05:02:28;;;;;;;3.10;2.90;;;22.50;59.30;;;;;;5014502;28;20407;-67
2023/10/04 05:04:53;;;;;;;3.20;2.90;;;22.50;59.40;;;;;;5014184;28;20434;-67
2023/10/04 05:07:19;;;;;;;2.80;2.60;;;22.50;59.30;;;;;;5013022;28;20483;-67
2023/10/04 05:09:46;;;;;;;3.20;3.00;;;22.50;59.30;;;;;;5014399;28;20175;-66
2023/10/04 05:12:11;;;;;;;3.10;2.80;;;22.50;59.30;;;;;;5016719;28;20208;-67
2023/10/04 05:14:37;;;;;;;2.80;2.60;;;22.50;59.30;;;;;;5017289;28;20493;-67
2023/10/04 05:17:03;;;;;;;3.10;2.90;;;22.50;59.40;;;;;;5017297;28;20179;-66
2023/10/04 05:19:29;;;;;;;3.30;3.10;;;22.50;59.30;;;;;;5018139;28;20168;-66
2023/10/04 05:21:54;;;;;;;2.97;2.77;;;22.50;59.30;;;;;;5018075;28;20199;-66
2023/10/04 05:24:20;;;;;;;2.90;2.70;;;22.50;59.30;;;;;;5017674;28;20430;-66
2023/10/04 05:26:46;;;;;;;2.80;2.60;;;22.50;59.30;;;;;;5017557;28;20187;-66
2023/10/04 05:29:12;;;;;;;2.80;2.60;;;22.50;59.30;;;;;;5017915;28;20671;-66
2023/10/04 05:31:38;;;;;;;3.13;2.93;;;22.50;59.30;;;;;;5017685;28;20179;-66
2023/10/04 05:34:03;;;;;;;3.07;2.87;;;22.50;59.30;;;;;;5018022;28;20467;-66
2023/10/04 05:36:30;;;;;;;2.50;2.30;;;22.50;59.30;;;;;;5017694;28;20192;-67
2023/10/04 05:38:57;;;;;;;2.93;2.70;;;22.50;59.30;;;;;;5018076;28;20214;-66
2023/10/04 05:41:23;;;;;;;2.80;2.60;;;22.40;59.80;;;;;;5017849;28;20415;-66
2023/10/04 05:43:49;;;;;;;2.70;2.50;;;22.40;59.30;;;;;;5017485;28;20436;-66
2023/10/04 05:46:14;;;;;;;2.70;2.50;;;22.50;59.40;;;;;;5017387;28;20787;-65
2023/10/04 05:48:40;;;;;;;2.80;2.60;;;22.50;59.30;;;;;;5017229;28;20403;-67
2023/10/04 05:51:07;;;;;;;2.87;2.67;;;22.50;59.30;;;;;;4999790;28;20745;-67
2023/10/04 05:53:32;;;;;;;3.13;2.83;;;22.50;59.30;;;;;;5017353;28;20196;-66
2023/10/04 05:55:58;;;;;;;2.77;2.57;;;22.50;59.40;;;;;;5017297;28;20427;-66
2023/10/04 05:58:25;;;;;;;2.57;2.37;;;22.50;58.90;;;;;;4999681;28;20172;-66
2023/10/04 06:00:53;;;;;;;3.03;2.77;;;22.50;59.30;;;;;;5014326;28;20168;-67
2023/10/04 06:03:19;;;;;;;2.83;2.63;;;22.40;59.30;;;;;;5014350;28;20446;-67
2023/10/04 06:05:45;;;;;;;3.10;2.80;;;22.40;59.30;;;;;;5014747;28;20414;-68
2023/10/04 06:08:21;;;;;;;4.33;3.20;;;22.50;59.40;;;;;;5014545;28;20176;-67
2023/10/04 06:10:50;;;;;;;2.53;2.33;;;22.50;59.40;;;;;;5014313;28;20171;-67
2023/10/04 06:13:17;;;;;;;3.43;3.13;;;22.40;59.30;;;;;;5014143;28;20471;-67
2023/10/04 06:15:47;;;;;;;2.60;2.40;;;22.50;59.50;;;;;;5014269;28;20415;-66
2023/10/04 06:18:13;;;;;;;2.90;2.70;;;22.40;59.40;;;;;;5014457;28;20414;-67
2023/10/04 06:20:43;;;;;;;2.97;2.30;;;22.50;59.50;;;;;;5014272;28;20408;-67
2023/10/04 06:23:14;;;;;;;2.37;2.17;;;22.50;59.50;;;;;;5013869;28;20439;-67
2023/10/04 06:25:47;;;;;;;2.63;2.43;;;22.50;59.50;;;;;;5014449;28;20798;-67
2023/10/04 06:28:13;;;;;;;2.50;2.30;;;22.50;59.50;;;;;;5013786;28;20489;-66
2023/10/04 06:30:40;;;;;;;4.00;2.87;;;22.50;59.50;;;;;;5013598;28;20446;-67
2023/10/04 06:33:08;;;;;;;2.87;2.57;;;22.40;59.40;;;;;;5013834;28;20459;-66
2023/10/04 06:35:35;;;;;;;3.00;2.80;;;22.50;59.60;;;;;;5013764;28;20800;-66
2023/10/04 06:38:08;;;;;;;2.60;2.40;;;22.40;59.40;;;;;;5014053;28;20909;-67
2023/10/04 06:40:35;;;;;;;3.27;2.70;;;22.50;59.60;;;;;;5013948;28;20483;-65
2023/10/04 06:43:06;;;;;;;2.80;2.50;;;22.40;59.50;;;;;;5012625;28;20447;-67
2023/10/04 06:45:33;;;;;;;2.63;2.43;;;22.40;59.50;;;;;;4996803;28;20487;-66
2023/10/04 06:48:00;;;;;;;3.00;2.60;;;22.40;59.50;;;;;;5013901;28;20408;-65
2023/10/04 06:50:35;;;;;;;2.13;2.03;;;22.50;59.60;;;;;;5013302;28;20421;-67
2023/10/04 06:53:02;;;;;;;2.73;2.53;;;22.40;59.50;;;;;;5013562;28;20872;-67
2023/10/04 06:55:29;;;;;;;4.57;2.80;;;22.50;59.60;;;;;;5013633;28;20416;-66
2023/10/04 06:57:55;;;;;;;4.83;2.50;;;22.40;59.60;;;;;;4995909;28;20423;-66
2023/10/04 07:00:26;;;;;;;2.13;1.93;;;22.40;59.60;;;;;;5013232;28;20931;-67
2023/10/04 07:02:54;;;;;;;2.90;2.70;;;22.50;59.60;;;;;;5013071;28;20164;-68
2023/10/04 07:05:21;;;;;;;3.93;2.60;;;22.40;59.60;;;;;;5013130;28;20431;-67
2023/10/04 07:07:56;;;;;;;2.43;2.23;;;22.40;59.60;;;;;;5013227;28;20886;-66
2023/10/04 07:10:24;;;;;;;2.30;2.10;;;22.50;59.60;;;;;;4996305;28;20415;-66
2023/10/04 07:12:54;;;;;;;2.77;2.57;;;22.50;59.70;;;;;;5013381;28;20555;-65
2023/10/04 07:15:21;;;;;;;2.43;2.23;;;22.50;59.70;;;;;;5013682;28;20419;-67
2023/10/04 07:17:48;;;;;;;2.60;2.27;;;22.50;59.60;;;;;;5013013;28;20414;-65
2023/10/04 07:20:15;;;;;;;2.87;2.60;;;22.50;59.70;;;;;;5013283;28;20503;-67
2023/10/04 07:22:59;;;;;;;2.30;2.00;;;22.50;59.60;;;;;;5013144;28;20462;-68
2023/10/04 07:25:29;;;;;;;2.60;2.30;;;22.50;59.60;;;;;;5013039;28;20449;-68
2023/10/04 07:28:01;;;;;;;2.50;2.30;;;22.50;59.70;;;;;;5012675;28;20962;-68
2023/10/04 07:30:28;;;;;;;2.50;2.30;;;22.40;59.60;;;;;;5012819;28;20498;-67
2023/10/04 07:32:53;;;;;;;2.50;2.30;;;22.40;59.60;;;;;;4995034;28;20963;-69
2023/10/04 07:35:25;;;;;;;2.93;2.47;;;22.50;59.70;;;;;;5011852;28;20458;-68
2023/10/04 07:38:00;;;;;;;4.67;2.53;;;22.50;59.70;;;;;;5012582;28;20633;-68
2023/10/04 07:40:27;;;;;;;2.83;2.20;;;22.50;59.70;;;;;;5012701;28;20394;-69
2023/10/04 07:42:54;;;;;;;2.50;2.30;;;22.40;59.60;;;;;;5010078;28;20470;-67
2023/10/04 07:45:25;;;;;;;2.50;2.30;;;22.50;59.70;;;;;;5007810;28;20538;-65
2023/10/04 07:47:51;;;;;;;3.27;2.47;;;22.50;59.60;;;;;;5010486;28;20450;-66
2023/10/04 07:50:28;;;;;;;2.60;2.30;;;22.50;59.70;;;;;;5006675;28;20662;-67
2023/10/04 07:52:59;;;;;;;2.87;2.67;;;22.50;59.70;;;;;;5010759;28;20994;-65
2023/10/04 07:55:25;;;;;;;2.63;2.43;;;22.50;59.60;;;;;;5008811;28;20423;-70
2023/10/04 07:58:02;;;;;;;3.90;2.40;;;22.40;59.50;;;;;;5009431;28;20419;-66
2023/10/04 08:00:29;;;;;;;3.83;2.13;;;22.50;59.60;;;;;;5009724;28;20179;-65
2023/10/04 08:02:57;;;;;;;2.47;2.27;;;22.50;59.60;;;;;;5008310;28;21207;-67
2023/10/04 08:05:29;;;;;;;3.30;3.00;;;22.40;59.60;;;;;;5009651;28;20553;-66
2023/10/04 08:07:57;;;;;;;2.30;2.10;;;22.50;59.60;;;;;;5009756;28;20416;-66
2023/10/04 08:10:25;;;;;;;3.17;2.90;;;22.50;59.50;;;;;;5009202;28;20888;-66
2023/10/04 08:12:53;;;;;;;5.00;2.40;;;22.50;59.50;;;;;;5008260;28;20427;-66
2023/10/04 08:15:21;;;;;;;2.90;2.60;;;22.50;59.50;;;;;;5009176;28;20427;-66
2023/10/04 08:17:48;;;;;;;3.10;2.80;;;22.50;59.50;;;;;;5009212;28;20446;-64
2023/10/04 08:20:18;;;;;;;4.10;2.10;;;22.60;59.40;;;;;;5009051;28;20423;-66
2023/10/04 08:22:44;;;;;;;7.30;2.83;;;22.60;59.40;;;;;;5009157;28;20978;-67
2023/10/04 08:25:17;;;;;;;6.33;2.63;;;22.60;59.30;;;;;;5006294;28;20467;-67
2023/10/04 08:27:43;;;;;;;2.90;2.10;;;22.60;59.40;;;;;;4999675;28;20937;-66
2023/10/04 08:30:12;;;;;;;2.73;2.10;;;22.60;59.40;;;;;;5009747;28;20528;-66
2023/10/04 08:32:38;;;;;;;2.87;2.40;;;22.60;59.30;;;;;;5008961;28;20435;-65
2023/10/04 08:35:28;;;;;;;6.10;2.47;;;22.60;59.30;;;;;;4991248;28;20455;-66
2023/10/04 08:37:57;;;;;;;2.73;2.20;;;22.60;59.30;;;;;;5009428;28;20842;-67
2023/10/04 08:40:24;;;;;;;3.27;1.80;;;22.60;59.40;;;;;;5009063;28;20454;-66
2023/10/04 08:42:50;;;;;;;8.83;2.33;;;22.60;59.40;;;;;;4989886;28;20466;-67
2023/10/04 08:45:17;;;;;;;3.10;2.03;;;22.60;59.30;;;;;;5008748;28;20431;-64
2023/10/04 08:47:50;;;;;;;3.20;2.13;;;22.60;59.40;;;;;;5009456;28;20824;-67
2023/10/04 08:50:19;;;;;;;2.80;1.90;;;22.60;59.30;;;;;;5009343;28;20388;-67
2023/10/04 08:52:50;;;;;;;2.50;2.30;;;22.60;59.30;;;;;;4988907;28;20422;-66
2023/10/04 08:55:22;;;;;;;3.27;2.23;;;22.60;59.30;;;;;;5007591;28;20908;-66
2023/10/04 08:57:50;;;;;;;2.33;2.13;;;22.60;59.40;;;;;;5009049;28;20411;-65
2023/10/04 09:00:23;;;;;;;2.57;2.00;;;22.60;59.30;;;;;;5009249;28;20426;-65
2023/10/04 09:02:50;;;;;;;3.03;2.40;;;22.60;59.30;;;;;;5008991;28;21034;-67
2023/10/04 09:05:23;;;;;;;3.80;2.30;;;22.60;59.40;;;;;;5009152;28;20426;-67
2023/10/04 09:07:50;;;;;;;2.10;1.90;;;22.60;59.30;;;;;;5009150;28;20420;-65
2023/10/04 09:10:17;;;;;;;5.90;2.20;;;22.60;59.40;;;;;;5008707;28;20898;-66
2023/10/04 09:12:47;;;;;;;3.57;1.73;;;22.60;59.40;;;;;;5008936;28;20419;-66
2023/10/04 09:15:15;;;;;;;2.23;1.70;;;22.60;59.40;;;;;;5009021;28;20498;-68
2023/10/04 09:17:46;;;;;;;1.67;1.57;;;22.60;59.40;;;;;;5008949;28;20443;-66
2023/10/04 09:20:16;;;;;;;3.57;2.10;;;22.60;59.40;;;;;;5009133;28;20419;-66
2023/10/04 09:22:43;;;;;;;2.77;2.20;;;22.60;59.90;;;;;;5009107;28;20415;-66
2023/10/04 09:25:10;;;;;;;3.43;2.20;;;22.60;59.40;;;;;;5008938;28;20986;-64
2023/10/04 09:27:37;;;;;;;2.30;1.80;;;22.60;59.40;;;;;;5008827;28;20579;-63
2023/10/04 09:30:20;;;;;;;2.00;1.80;;;22.60;59.40;;;;;;5008754;28;20411;-66
2023/10/04 09:32:46;;;;;;;4.10;1.93;;;22.60;59.40;;;;;;5008643;28;20480;-65
2023/10/04 09:35:12;;;;;;;2.23;1.70;;;22.60;59.30;;;;;;5008833;28;20920;-65
2023/10/04 09:37:44;;;;;;;1.80;1.70;;;22.60;59.40;;;;;;5008866;28;20161;-66
2023/10/04 09:40:12;;;;;;;2.20;1.90;;;22.60;59.30;;;;;;5008822;28;20689;-66
2023/10/04 09:42:53;;;;;;;2.43;2.23;;;22.60;59.40;;;;;;5008330;28;20454;-67
2023/10/04 09:45:26;;;;;;;1.90;1.70;;;22.60;59.30;;;;;;5008528;28;20423;-66
2023/10/04 09:47:55;;;;;;;6.00;2.00;;;22.60;59.30;;;;;;5008720;28;20412;-66
2023/10/04 09:50:26;;;;;;;1.70;1.60;;;22.60;59.30;;;;;;5008632;28;20465;-66
2023/10/04 09:52:53;;;;;;;2.50;1.60;;;22.60;59.30;;;;;;5008515;28;20442;-65
2023/10/04 09:55:22;;;;;;;1.97;1.67;;;22.60;59.40;;;;;;5008742;28;20469;-66
2023/10/04 09:57:48;;;;;;;2.50;2.13;;;22.60;59.40;;;;;;4992694;28;20430;-66
2023/10/04 10:00:18;;;;;;;1.43;1.33;;;22.50;59.20;;;;;;5012178;28;20759;-67
2023/10/04 10:02:48;;;;;;;1.83;1.60;;;22.60;59.40;;;;;;5011964;28;20446;-65
2023/10/04 10:05:26;;;;;;;2.63;2.10;;;22.60;59.40;;;;;;5012503;28;20415;-65
2023/10/04 10:07:53;;;;;;;2.17;1.70;;;22.60;59.90;;;;;;5011939;28;20967;-68
2023/10/04 10:10:21;;;;;;;2.83;1.73;;;22.60;59.30;;;;;;5011837;28;20449;-66
2023/10/04 10:12:51;;;;;;;3.10;1.90;;;22.60;59.30;;;;;;5011734;28;20419;-65
2023/10/04 10:15:18;;;;;;;2.90;1.40;;;22.60;59.30;;;;;;4994206;28;20435;-66
2023/10/04 10:17:46;;;;;;;1.73;1.63;;;22.60;59.30;;;;;;5011882;28;20411;-66
2023/10/04 10:20:15;;;;;;;2.00;1.90;;;22.60;59.30;;;;;;5011749;28;20411;-66
2023/10/04 10:22:58;;;;;;;2.23;1.77;;;22.60;59.30;;;;;;5011565;28;20439;-67
2023/10/04 10:25:32;;;;;;;2.20;1.60;;;22.60;59.30;;;;;;5012378;28;20447;-68
2023/10/04 10:28:01;;;;;;;2.00;1.63;;;22.50;59.20;;;;;;5008509;28;20448;-66
2023/10/04 10:30:28;;;;;;;1.83;1.40;;;22.60;59.30;;;;;;5016176;28;20477;-66
2023/10/04 10:32:56;;;;;;;1.60;1.50;;;22.50;59.30;;;;;;5009441;28;20437;-65
2023/10/04 10:35:48;;;;;;;2.50;2.10;;;22.60;59.40;;;;;;5011323;28;20447;-66
2023/10/04 10:38:52;;;;;;;2.13;2.00;;;22.60;59.90;;;;;;4996729;28;20431;-66
2023/10/04 10:41:33;;;;;;;3.23;2.13;;;22.60;59.30;;;;;;4910579;29;20491;-67
2023/10/04 10:44:11;;;;;;;1.90;1.43;;;22.60;59.30;;;;;;5000153;28;20451;-66
2023/10/04 10:47:07;;;;;;;2.20;2.00;;;22.50;59.30;;;;;;5002528;28;20982;-64
2023/10/04 10:49:56;;;;;;;2.00;1.70;;;22.60;59.30;;;;;;5009649;28;20458;-67
2023/10/04 10:52:31;;;;;;;1.60;1.50;;;22.50;59.30;;;;;;4991762;28;20396;-66
2023/10/04 10:55:05;;;;;;;1.90;1.53;;;22.50;59.20;;;;;;4995261;28;20549;-63
2023/10/04 10:57:31;;;;;;;1.77;1.40;;;22.50;59.20;;;;;;4991606;28;20484;-64
2023/10/04 10:59:58;;;;;;;1.73;1.60;;;22.50;59.20;;;;;;4991629;28;20660;-65
2023/10/04 11:02:25;;;;;;;1.73;1.50;;;22.60;59.20;;;;;;4997343;28;20180;-65
2023/10/04 11:04:52;;;;;;;1.73;1.63;;;22.50;59.20;;;;;;5000392;28;20475;-65
2023/10/04 11:07:21;;;;;;;2.97;2.10;;;22.60;59.30;;;;;;5006706;28;20434;-65
2023/10/04 11:09:54;;;;;;;1.77;1.50;;;22.60;59.20;;;;;;5006245;28;20432;-65
2023/10/04 11:12:21;;;;;;;1.60;1.50;;;22.60;59.20;;;;;;4991399;28;20511;-66
2023/10/04 11:14:47;;;;;;;3.17;1.63;;;22.60;59.20;;;;;;4991167;28;20966;-67
2023/10/04 11:17:16;;;;;;;2.40;1.53;;;22.60;59.20;;;;;;4991022;28;20435;-67
2023/10/04 11:19:42;;;;;;;2.07;1.80;;;22.60;59.20;;;;;;5010526;28;20482;-64
2023/10/04 11:22:10;;;;;;;1.67;1.40;;;22.60;59.10;;;;;;5010534;28;20419;-64
2023/10/04 11:24:36;;;;;;;1.87;1.50;;;22.60;59.10;;;;;;5010624;28;20439;-63
2023/10/04 11:27:03;;;;;;;1.97;1.30;;;22.60;58.90;;;;;;5010514;28;20415;-65
2023/10/04 11:29:30;;;;;;;1.77;1.47;;;22.60;58.70;;;;;;5011183;28;20429;-63
2023/10/04 11:31:57;;;;;;;1.70;1.50;;;22.60;58.50;;;;;;5010718;28;20428;-66
2023/10/04 11:34:23;;;;;;;1.53;1.43;;;22.60;58.40;;;;;;5010491;28;20552;-65
2023/10/04 11:36:48;;;;;;;3.27;1.80;;;22.60;58.20;;;;;;5010294;28;20463;-65
2023/10/04 11:39:20;;;;;;;2.33;2.03;;;22.60;58.20;;;;;;5011702;28;20179;-65
2023/10/04 11:41:47;;;;;;;2.27;1.63;;;22.60;58.10;;;;;;5010041;28;20180;-66
2023/10/04 11:44:13;;;;;;;2.03;1.57;;;22.60;58.10;;;;;;5009906;28;20513;-66
2023/10/04 11:46:59;;;;;;;2.20;1.60;;;22.50;58.00;;;;;;5010260;28;20447;-66
2023/10/04 11:49:28;;;;;;;2.57;2.20;;;22.60;58.10;;;;;;5010233;28;20487;-67
2023/10/04 11:51:58;;;;;;;3.00;1.53;;;22.50;58.00;;;;;;5010982;28;20555;-66
2023/10/04 11:54:26;;;;;;;2.63;1.73;;;22.50;58.00;;;;;;5009819;28;20458;-68
2023/10/04 11:56:52;;;;;;;2.93;1.80;;;22.50;58.20;;;;;;5009938;28;20434;-66
2023/10/04 11:59:30;;;;;;;2.03;1.37;;;22.50;58.10;;;;;;5009931;28;21263;-67
2023/10/04 12:01:56;;;;;;;4.20;1.47;;;22.60;58.20;;;;;;5009991;28;20608;-66
2023/10/04 12:04:22;;;;;;;2.00;1.47;;;22.50;58.10;;;;;;4992046;28;20483;-66
2023/10/04 12:07:01;;;;;;;1.70;1.50;;;22.50;58.20;;;;;;5010210;28;20188;-67
2023/10/04 12:09:28;;;;;;;2.80;1.73;;;22.60;58.10;;;;;;5010432;28;20410;-64
2023/10/04 12:11:58;;;;;;;2.20;1.80;;;22.60;58.10;;;;;;5009899;28;20423;-67
2023/10/04 12:14:24;;;;;;;2.47;2.10;;;22.60;58.10;;;;;;5010738;28;20990;-68
2023/10/04 12:16:50;;;;;;;2.23;1.63;;;22.60;58.20;;;;;;5010071;28;20422;-66
2023/10/04 12:19:16;;;;;;;4.80;2.33;;;22.60;58.00;;;;;;5009963;28;20176;-67
2023/10/04 12:21:43;;;;;;;3.87;2.83;;;22.60;58.10;;;;;;5009508;28;20927;-67
2023/10/04 12:24:09;;;;;;;8.40;4.80;;;22.60;58.10;;;;;;5009747;28;20443;-67
2023/10/04 12:26:36;;;;;;;9.07;3.97;;;22.60;58.10;;;;;;5009857;28;20447;-68
2023/10/04 12:29:07;;;;;;;7.80;4.73;;;22.60;58.10;;;;;;5009837;28;20437;-67
2023/10/04 12:31:33;;;;;;;9.10;5.17;;;22.60;58.10;;;;;;5004219;28;20937;-68
2023/10/04 12:33:59;;;;;;;8.40;4.70;;;22.60;58.10;;;;;;5017456;28;20470;-68
2023/10/04 12:36:27;;;;;;;7.27;4.93;;;22.60;58.10;;;;;;5019519;28;20672;-67
2023/10/04 12:38:52;;;;;;;6.90;4.53;;;22.60;58.00;;;;;;5011106;28;20203;-68
2023/10/04 12:41:18;;;;;;;8.10;5.00;;;22.50;58.00;;;;;;5015983;28;20454;-66
2023/10/04 12:43:44;;;;;;;7.37;4.90;;;22.60;58.10;;;;;;5019824;28;20207;-66
2023/10/04 12:46:10;;;;;;;6.87;5.63;;;22.60;58.20;;;;;;5020227;28;20195;-67
2023/10/04 12:48:36;;;;;;;12.20;7.20;;;22.60;58.20;;;;;;5020069;28;20262;-68
2023/10/04 12:51:02;;;;;;;10.77;6.23;;;22.60;58.20;;;;;;5015740;28;20262;-67
2023/10/04 12:53:27;;;;;;;8.73;5.90;;;22.60;58.20;;;;;;5005157;28;20218;-66